sensor_id;sensor_type;location;lat;lon;timestamp;P1;durP1;ratioP1;P2;durP2;ratioP2
15381;SDS011;7789;51.364;12.358;2023-04-24T00:00:41;1.58;;;0.93;;
15381;SDS011;7789;51.364;12.358;2023-04-24T00:05:48;2.42;;;0.88;;
15381;SDS011;7789;51.364;12.358;2023-04-24T00:10:52;3.20;;;0.75;;
15381;SDS011;7789;51.364;12.358;2023-04-24T00:15:56;1.00;;;0.90;;
15381;SDS011;7789;51.364;12.358;2023-04-24T00:21:01;1.50;;;1.00;;
15381;SDS011;7789;51.364;12.358;2023-04-24T00:26:04;1.20;;;1.10;;
15381;SDS011;7789;51.364;12.358;2023-04-24T00:31:07;2.03;;;1.08;;
15381;SDS011;7789;51.364;12.358;2023-04-24T00:36:12;1.92;;;1.20;;
15381;SDS011;7789;51.364;12.358;2023-04-24T00:41:21;1.30;;;1.02;;
15381;SDS011;7789;51.364;12.358;2023-04-24T00:46:25;1.08;;;0.98;;
15381;SDS011;7789;51.364;12.358;2023-04-24T00:51:30;1.80;;;1.17;;
15381;SDS011;7789;51.364;12.358;2023-04-24T00:56:34;1.50;;;0.90;;
15381;SDS011;7789;51.364;12.358;2023-04-24T01:01:39;1.42;;;0.90;;
15381;SDS011;7789;51.364;12.358;2023-04-24T01:06:45;2.95;;;0.90;;
15381;SDS011;7789;51.364;12.358;2023-04-24T01:11:53;3.22;;;1.05;;
15381;SDS011;7789;51.364;12.358;2023-04-24T01:16:58;2.35;;;1.05;;
15381;SDS011;7789;51.364;12.358;2023-04-24T01:27:12;0.60;;;0.60;;
15381;SDS011;7789;51.364;12.358;2023-04-24T01:32:17;1.80;;;0.80;;
15381;SDS011;7789;51.364;12.358;2023-04-24T01:37:25;1.05;;;0.70;;
15381;SDS011;7789;51.364;12.358;2023-04-24T01:42:33;0.70;;;0.50;;
15381;SDS011;7789;51.364;12.358;2023-04-24T01:47:37;1.58;;;0.70;;
15381;SDS011;7789;51.364;12.358;2023-04-24T01:52:43;2.13;;;0.70;;
15381;SDS011;7789;51.364;12.358;2023-04-24T01:57:46;0.85;;;0.80;;
15381;SDS011;7789;51.364;12.358;2023-04-24T02:02:50;1.30;;;0.68;;
15381;SDS011;7789;51.364;12.358;2023-04-24T02:07:56;0.63;;;0.60;;
15381;SDS011;7789;51.364;12.358;2023-04-24T02:13:02;1.75;;;0.80;;
15381;SDS011;7789;51.364;12.358;2023-04-24T02:18:06;1.42;;;0.80;;
15381;SDS011;7789;51.364;12.358;2023-04-24T02:23:13;1.92;;;0.63;;
15381;SDS011;7789;51.364;12.358;2023-04-24T02:28:17;1.90;;;0.80;;
15381;SDS011;7789;51.364;12.358;2023-04-24T02:33:24;0.55;;;0.50;;
15381;SDS011;7789;51.364;12.358;2023-04-24T02:38:32;1.73;;;0.70;;
15381;SDS011;7789;51.364;12.358;2023-04-24T02:43:37;1.17;;;0.60;;
15381;SDS011;7789;51.364;12.358;2023-04-24T02:48:41;0.90;;;0.70;;
15381;SDS011;7789;51.364;12.358;2023-04-24T02:53:46;1.42;;;0.80;;
15381;SDS011;7789;51.364;12.358;2023-04-24T02:58:49;1.75;;;0.88;;
15381;SDS011;7789;51.364;12.358;2023-04-24T03:03:53;4.00;;;0.70;;
15381;SDS011;7789;51.364;12.358;2023-04-24T03:08:59;1.23;;;0.73;;
15381;SDS011;7789;51.364;12.358;2023-04-24T03:14:03;0.68;;;0.65;;
15381;SDS011;7789;51.364;12.358;2023-04-24T03:19:09;2.42;;;1.10;;
15381;SDS011;7789;51.364;12.358;2023-04-24T03:24:14;2.92;;;0.90;;
15381;SDS011;7789;51.364;12.358;2023-04-24T03:29:17;1.30;;;1.00;;
15381;SDS011;7789;51.364;12.358;2023-04-24T03:34:21;1.88;;;0.85;;
15381;SDS011;7789;51.364;12.358;2023-04-24T03:39:26;0.93;;;0.70;;
15381;SDS011;7789;51.364;12.358;2023-04-24T03:44:30;2.15;;;1.00;;
15381;SDS011;7789;51.364;12.358;2023-04-24T03:49:33;1.35;;;0.73;;
15381;SDS011;7789;51.364;12.358;2023-04-24T03:54:41;1.02;;;0.93;;
15381;SDS011;7789;51.364;12.358;2023-04-24T03:59:44;1.25;;;0.93;;
15381;SDS011;7789;51.364;12.358;2023-04-24T04:04:48;0.98;;;0.63;;
15381;SDS011;7789;51.364;12.358;2023-04-24T04:09:54;1.83;;;1.10;;
15381;SDS011;7789;51.364;12.358;2023-04-24T04:14:58;2.50;;;1.17;;
15381;SDS011;7789;51.364;12.358;2023-04-24T04:20:01;2.10;;;1.10;;
15381;SDS011;7789;51.364;12.358;2023-04-24T04:25:10;1.25;;;0.93;;
15381;SDS011;7789;51.364;12.358;2023-04-24T04:30:15;1.27;;;0.85;;
15381;SDS011;7789;51.364;12.358;2023-04-24T04:35:20;2.00;;;0.70;;
15381;SDS011;7789;51.364;12.358;2023-04-24T04:40:30;2.28;;;0.90;;
15381;SDS011;7789;51.364;12.358;2023-04-24T04:45:34;2.25;;;0.90;;
15381;SDS011;7789;51.364;12.358;2023-04-24T04:50:39;1.63;;;0.85;;
15381;SDS011;7789;51.364;12.358;2023-04-24T04:55:47;0.75;;;0.60;;
15381;SDS011;7789;51.364;12.358;2023-04-24T05:00:51;2.15;;;0.90;;
15381;SDS011;7789;51.364;12.358;2023-04-24T05:05:55;1.45;;;0.98;;
15381;SDS011;7789;51.364;12.358;2023-04-24T05:11:00;1.77;;;0.93;;
15381;SDS011;7789;51.364;12.358;2023-04-24T05:16:08;2.05;;;0.77;;
15381;SDS011;7789;51.364;12.358;2023-04-24T05:21:12;1.63;;;0.95;;
15381;SDS011;7789;51.364;12.358;2023-04-24T05:26:20;3.63;;;0.80;;
15381;SDS011;7789;51.364;12.358;2023-04-24T05:31:24;2.95;;;0.98;;
15381;SDS011;7789;51.364;12.358;2023-04-24T05:36:32;2.35;;;1.00;;
15381;SDS011;7789;51.364;12.358;2023-04-24T05:41:38;3.67;;;0.85;;
15381;SDS011;7789;51.364;12.358;2023-04-24T05:46:51;3.15;;;0.85;;
15381;SDS011;7789;51.364;12.358;2023-04-24T05:51:57;1.65;;;0.80;;
15381;SDS011;7789;51.364;12.358;2023-04-24T05:57:03;2.67;;;1.08;;
15381;SDS011;7789;51.364;12.358;2023-04-24T06:02:09;1.67;;;0.82;;
15381;SDS011;7789;51.364;12.358;2023-04-24T06:07:13;1.55;;;0.75;;
15381;SDS011;7789;51.364;12.358;2023-04-24T06:12:19;1.60;;;0.90;;
15381;SDS011;7789;51.364;12.358;2023-04-24T06:17:23;2.22;;;0.82;;
15381;SDS011;7789;51.364;12.358;2023-04-24T06:22:30;2.67;;;0.80;;
15381;SDS011;7789;51.364;12.358;2023-04-24T06:27:35;2.28;;;0.77;;
15381;SDS011;7789;51.364;12.358;2023-04-24T06:32:39;1.17;;;0.70;;
15381;SDS011;7789;51.364;12.358;2023-04-24T06:37:44;1.15;;;0.70;;
15381;SDS011;7789;51.364;12.358;2023-04-24T06:42:49;0.88;;;0.68;;
15381;SDS011;7789;51.364;12.358;2023-04-24T06:47:53;3.42;;;1.02;;
15381;SDS011;7789;51.364;12.358;2023-04-24T06:52:57;1.05;;;0.85;;
15381;SDS011;7789;51.364;12.358;2023-04-24T06:58:02;2.65;;;1.00;;
15381;SDS011;7789;51.364;12.358;2023-04-24T07:03:06;3.25;;;0.90;;
15381;SDS011;7789;51.364;12.358;2023-04-24T07:08:10;3.58;;;1.15;;
15381;SDS011;7789;51.364;12.358;2023-04-24T07:13:15;5.07;;;0.90;;
15381;SDS011;7789;51.364;12.358;2023-04-24T07:18:20;3.75;;;1.23;;
15381;SDS011;7789;51.364;12.358;2023-04-24T07:23:23;3.30;;;0.90;;
15381;SDS011;7789;51.364;12.358;2023-04-24T07:28:28;3.00;;;0.73;;
15381;SDS011;7789;51.364;12.358;2023-04-24T07:33:33;1.63;;;0.88;;
15381;SDS011;7789;51.364;12.358;2023-04-24T07:38:37;4.03;;;0.70;;
15381;SDS011;7789;51.364;12.358;2023-04-24T07:43:43;2.72;;;1.10;;
15381;SDS011;7789;51.364;12.358;2023-04-24T07:48:47;4.57;;;0.98;;
15381;SDS011;7789;51.364;12.358;2023-04-24T07:54:09;2.45;;;0.90;;
15381;SDS011;7789;51.364;12.358;2023-04-24T07:59:14;3.15;;;1.02;;
15381;SDS011;7789;51.364;12.358;2023-04-24T08:04:20;1.58;;;0.85;;
15381;SDS011;7789;51.364;12.358;2023-04-24T08:09:24;4.22;;;0.70;;
15381;SDS011;7789;51.364;12.358;2023-04-24T08:14:30;1.05;;;0.70;;
15381;SDS011;7789;51.364;12.358;2023-04-24T08:19:33;2.20;;;0.50;;
15381;SDS011;7789;51.364;12.358;2023-04-24T08:24:37;1.50;;;0.70;;
15381;SDS011;7789;51.364;12.358;2023-04-24T08:29:42;2.10;;;0.70;;
15381;SDS011;7789;51.364;12.358;2023-04-24T08:34:45;3.00;;;0.60;;
15381;SDS011;7789;51.364;12.358;2023-04-24T08:39:50;2.10;;;0.50;;
15381;SDS011;7789;51.364;12.358;2023-04-24T08:44:56;1.67;;;0.70;;
15381;SDS011;7789;51.364;12.358;2023-04-24T08:49:59;3.72;;;0.60;;
15381;SDS011;7789;51.364;12.358;2023-04-24T08:55:08;0.77;;;0.50;;
15381;SDS011;7789;51.364;12.358;2023-04-24T09:00:15;0.60;;;0.43;;
15381;SDS011;7789;51.364;12.358;2023-04-24T09:05:20;1.58;;;0.57;;
15381;SDS011;7789;51.364;12.358;2023-04-24T09:10:28;1.67;;;0.57;;
15381;SDS011;7789;51.364;12.358;2023-04-24T09:15:33;0.47;;;0.40;;
15381;SDS011;7789;51.364;12.358;2023-04-24T09:26:00;1.27;;;0.52;;
15381;SDS011;7789;51.364;12.358;2023-04-24T09:31:08;1.00;;;0.52;;
15381;SDS011;7789;51.364;12.358;2023-04-24T09:36:13;1.38;;;0.60;;
15381;SDS011;7789;51.364;12.358;2023-04-24T09:41:21;1.10;;;0.55;;
15381;SDS011;7789;51.364;12.358;2023-04-24T09:46:32;0.95;;;0.50;;
15381;SDS011;7789;51.364;12.358;2023-04-24T09:51:38;2.42;;;0.60;;
15381;SDS011;7789;51.364;12.358;2023-04-24T09:56:42;1.63;;;0.63;;
15381;SDS011;7789;51.364;12.358;2023-04-24T10:01:50;2.35;;;1.30;;
15381;SDS011;7789;51.364;12.358;2023-04-24T10:06:54;2.33;;;0.70;;
15381;SDS011;7789;51.364;12.358;2023-04-24T10:11:59;2.58;;;0.68;;
15381;SDS011;7789;51.364;12.358;2023-04-24T10:17:05;4.00;;;0.70;;
15381;SDS011;7789;51.364;12.358;2023-04-24T10:22:09;4.65;;;0.90;;
15381;SDS011;7789;51.364;12.358;2023-04-24T10:27:14;1.38;;;0.73;;
15381;SDS011;7789;51.364;12.358;2023-04-24T10:32:19;1.33;;;0.70;;
15381;SDS011;7789;51.364;12.358;2023-04-24T10:37:23;1.83;;;0.80;;
15381;SDS011;7789;51.364;12.358;2023-04-24T10:42:28;3.78;;;2.00;;
15381;SDS011;7789;51.364;12.358;2023-04-24T10:47:40;0.65;;;0.60;;
15381;SDS011;7789;51.364;12.358;2023-04-24T10:52:44;2.75;;;0.70;;
15381;SDS011;7789;51.364;12.358;2023-04-24T10:58:03;1.50;;;0.70;;
15381;SDS011;7789;51.364;12.358;2023-04-24T11:03:24;2.70;;;0.90;;
15381;SDS011;7789;51.364;12.358;2023-04-24T11:08:32;3.05;;;0.70;;
15381;SDS011;7789;51.364;12.358;2023-04-24T11:14:00;1.25;;;1.00;;
15381;SDS011;7789;51.364;12.358;2023-04-24T11:19:09;1.90;;;0.90;;
15381;SDS011;7789;51.364;12.358;2023-04-24T11:24:25;0.80;;;0.63;;
15381;SDS011;7789;51.364;12.358;2023-04-24T11:29:40;0.73;;;0.68;;
15381;SDS011;7789;51.364;12.358;2023-04-24T11:34:47;0.95;;;0.60;;
15381;SDS011;7789;51.364;12.358;2023-04-24T11:39:52;7.05;;;0.70;;
15381;SDS011;7789;51.364;12.358;2023-04-24T11:44:56;2.75;;;1.23;;
15381;SDS011;7789;51.364;12.358;2023-04-24T11:50:04;2.30;;;0.70;;
15381;SDS011;7789;51.364;12.358;2023-04-24T11:55:22;1.20;;;0.70;;
15381;SDS011;7789;51.364;12.358;2023-04-24T12:00:28;0.90;;;0.70;;
15381;SDS011;7789;51.364;12.358;2023-04-24T12:05:34;0.70;;;0.52;;
15381;SDS011;7789;51.364;12.358;2023-04-24T12:10:38;0.88;;;0.60;;
15381;SDS011;7789;51.364;12.358;2023-04-24T12:15:42;1.85;;;0.70;;
15381;SDS011;7789;51.364;12.358;2023-04-24T12:20:47;0.70;;;0.60;;
15381;SDS011;7789;51.364;12.358;2023-04-24T12:25:50;0.80;;;0.60;;
15381;SDS011;7789;51.364;12.358;2023-04-24T12:30:54;0.90;;;0.68;;
15381;SDS011;7789;51.364;12.358;2023-04-24T12:36:01;1.40;;;0.65;;
15381;SDS011;7789;51.364;12.358;2023-04-24T12:41:08;3.05;;;0.70;;
15381;SDS011;7789;51.364;12.358;2023-04-24T12:46:12;1.02;;;0.75;;
15381;SDS011;7789;51.364;12.358;2023-04-24T12:51:19;4.50;;;0.80;;
15381;SDS011;7789;51.364;12.358;2023-04-24T12:56:23;2.05;;;0.60;;
15381;SDS011;7789;51.364;12.358;2023-04-24T13:01:30;1.08;;;0.68;;
15381;SDS011;7789;51.364;12.358;2023-04-24T13:06:35;0.98;;;0.77;;
15381;SDS011;7789;51.364;12.358;2023-04-24T13:11:39;3.15;;;0.80;;
15381;SDS011;7789;51.364;12.358;2023-04-24T13:16:42;0.73;;;0.68;;
15381;SDS011;7789;51.364;12.358;2023-04-24T13:21:48;0.73;;;0.70;;
15381;SDS011;7789;51.364;12.358;2023-04-24T13:26:54;1.00;;;0.90;;
15381;SDS011;7789;51.364;12.358;2023-04-24T13:32:04;1.45;;;0.70;;
15381;SDS011;7789;51.364;12.358;2023-04-24T13:37:09;3.20;;;0.80;;
15381;SDS011;7789;51.364;12.358;2023-04-24T13:42:16;1.88;;;0.88;;
15381;SDS011;7789;51.364;12.358;2023-04-24T13:47:25;2.35;;;0.73;;
15381;SDS011;7789;51.364;12.358;2023-04-24T13:52:32;2.38;;;0.77;;
15381;SDS011;7789;51.364;12.358;2023-04-24T13:57:36;2.10;;;0.57;;
15381;SDS011;7789;51.364;12.358;2023-04-24T14:02:40;1.80;;;0.65;;
15381;SDS011;7789;51.364;12.358;2023-04-24T14:07:45;2.78;;;0.70;;
15381;SDS011;7789;51.364;12.358;2023-04-24T14:12:48;3.67;;;0.52;;
15381;SDS011;7789;51.364;12.358;2023-04-24T14:17:53;1.55;;;0.50;;
15381;SDS011;7789;51.364;12.358;2023-04-24T14:22:58;3.85;;;0.60;;
15381;SDS011;7789;51.364;12.358;2023-04-24T14:28:03;2.15;;;0.80;;
15381;SDS011;7789;51.364;12.358;2023-04-24T14:33:08;3.75;;;0.70;;
15381;SDS011;7789;51.364;12.358;2023-04-24T14:38:16;1.95;;;0.50;;
15381;SDS011;7789;51.364;12.358;2023-04-24T14:43:20;1.85;;;0.63;;
15381;SDS011;7789;51.364;12.358;2023-04-24T14:48:24;1.85;;;0.30;;
15381;SDS011;7789;51.364;12.358;2023-04-24T14:53:32;2.47;;;0.40;;
15381;SDS011;7789;51.364;12.358;2023-04-24T14:58:37;0.60;;;0.45;;
15381;SDS011;7789;51.364;12.358;2023-04-24T15:03:40;1.60;;;0.55;;
15381;SDS011;7789;51.364;12.358;2023-04-24T15:08:47;2.50;;;0.45;;
15381;SDS011;7789;51.364;12.358;2023-04-24T15:13:52;1.15;;;0.60;;
15381;SDS011;7789;51.364;12.358;2023-04-24T15:18:56;0.73;;;0.40;;
15381;SDS011;7789;51.364;12.358;2023-04-24T15:24:02;2.35;;;0.40;;
15381;SDS011;7789;51.364;12.358;2023-04-24T15:29:06;1.00;;;0.30;;
15381;SDS011;7789;51.364;12.358;2023-04-24T15:34:11;1.55;;;0.40;;
15381;SDS011;7789;51.364;12.358;2023-04-24T15:39:19;0.75;;;0.43;;
15381;SDS011;7789;51.364;12.358;2023-04-24T15:44:27;0.63;;;0.45;;
15381;SDS011;7789;51.364;12.358;2023-04-24T15:49:31;0.60;;;0.30;;
15381;SDS011;7789;51.364;12.358;2023-04-24T15:54:35;0.20;;;0.20;;
15381;SDS011;7789;51.364;12.358;2023-04-24T15:59:40;0.38;;;0.30;;
15381;SDS011;7789;51.364;12.358;2023-04-24T16:04:43;0.40;;;0.40;;
15381;SDS011;7789;51.364;12.358;2023-04-24T16:09:50;0.30;;;0.30;;
15381;SDS011;7789;51.364;12.358;2023-04-24T16:14:54;1.27;;;1.00;;
15381;SDS011;7789;51.364;12.358;2023-04-24T16:19:58;4.10;;;0.55;;
15381;SDS011;7789;51.364;12.358;2023-04-24T16:25:03;2.45;;;0.80;;
15381;SDS011;7789;51.364;12.358;2023-04-24T16:30:07;0.73;;;0.47;;
15381;SDS011;7789;51.364;12.358;2023-04-24T16:35:14;2.35;;;0.40;;
15381;SDS011;7789;51.364;12.358;2023-04-24T16:40:19;0.88;;;0.50;;
15381;SDS011;7789;51.364;12.358;2023-04-24T16:45:23;0.68;;;0.45;;
15381;SDS011;7789;51.364;12.358;2023-04-24T16:50:27;0.82;;;0.40;;
15381;SDS011;7789;51.364;12.358;2023-04-24T16:55:36;1.05;;;0.50;;
15381;SDS011;7789;51.364;12.358;2023-04-24T17:00:40;1.08;;;0.40;;
15381;SDS011;7789;51.364;12.358;2023-04-24T17:05:44;1.23;;;0.75;;
15381;SDS011;7789;51.364;12.358;2023-04-24T17:10:50;0.73;;;0.60;;
15381;SDS011;7789;51.364;12.358;2023-04-24T17:15:54;0.57;;;0.50;;
15381;SDS011;7789;51.364;12.358;2023-04-24T17:20:58;0.60;;;0.40;;
15381;SDS011;7789;51.364;12.358;2023-04-24T17:26:03;2.35;;;0.80;;
15381;SDS011;7789;51.364;12.358;2023-04-24T17:31:09;1.23;;;0.70;;
15381;SDS011;7789;51.364;12.358;2023-04-24T17:36:15;0.93;;;0.50;;
15381;SDS011;7789;51.364;12.358;2023-04-24T17:41:21;1.05;;;0.50;;
15381;SDS011;7789;51.364;12.358;2023-04-24T17:46:25;0.70;;;0.70;;
15381;SDS011;7789;51.364;12.358;2023-04-24T17:51:28;1.58;;;0.80;;
15381;SDS011;7789;51.364;12.358;2023-04-24T17:56:36;2.92;;;0.43;;
15381;SDS011;7789;51.364;12.358;2023-04-24T18:01:40;1.15;;;0.55;;
15381;SDS011;7789;51.364;12.358;2023-04-24T18:06:53;3.58;;;1.95;;
15381;SDS011;7789;51.364;12.358;2023-04-24T18:11:59;0.93;;;0.75;;
15381;SDS011;7789;51.364;12.358;2023-04-24T18:17:03;1.10;;;0.73;;
15381;SDS011;7789;51.364;12.358;2023-04-24T18:22:08;0.60;;;0.60;;
15381;SDS011;7789;51.364;12.358;2023-04-24T18:27:13;1.00;;;0.60;;
15381;SDS011;7789;51.364;12.358;2023-04-24T18:32:20;0.98;;;0.70;;
15381;SDS011;7789;51.364;12.358;2023-04-24T18:37:25;1.77;;;1.10;;
15381;SDS011;7789;51.364;12.358;2023-04-24T18:42:31;2.90;;;0.93;;
15381;SDS011;7789;51.364;12.358;2023-04-24T18:47:36;0.90;;;0.70;;
15381;SDS011;7789;51.364;12.358;2023-04-24T18:52:40;1.80;;;1.00;;
15381;SDS011;7789;51.364;12.358;2023-04-24T18:57:45;2.20;;;1.40;;
15381;SDS011;7789;51.364;12.358;2023-04-24T19:02:48;3.00;;;1.50;;
15381;SDS011;7789;51.364;12.358;2023-04-24T19:07:53;1.10;;;1.03;;
15381;SDS011;7789;51.364;12.358;2023-04-24T19:12:58;2.23;;;1.40;;
15381;SDS011;7789;51.364;12.358;2023-04-24T19:18:02;2.75;;;1.70;;
15381;SDS011;7789;51.364;12.358;2023-04-24T19:23:06;2.23;;;1.60;;
15381;SDS011;7789;51.364;12.358;2023-04-24T19:28:12;2.33;;;1.67;;
15381;SDS011;7789;51.364;12.358;2023-04-24T19:33:17;1.93;;;1.30;;
15381;SDS011;7789;51.364;12.358;2023-04-24T19:38:21;2.87;;;2.00;;
15381;SDS011;7789;51.364;12.358;2023-04-24T19:43:26;2.57;;;1.70;;
15381;SDS011;7789;51.364;12.358;2023-04-24T19:48:31;4.77;;;1.97;;
15381;SDS011;7789;51.364;12.358;2023-04-24T19:53:34;2.53;;;1.77;;
15381;SDS011;7789;51.364;12.358;2023-04-24T19:58:41;3.57;;;2.23;;
15381;SDS011;7789;51.364;12.358;2023-04-24T20:03:49;5.07;;;2.00;;
15381;SDS011;7789;51.364;12.358;2023-04-24T20:08:54;1.57;;;1.47;;
15381;SDS011;7789;51.364;12.358;2023-04-24T20:14:00;3.67;;;1.80;;
15381;SDS011;7789;51.364;12.358;2023-04-24T20:19:05;2.70;;;1.90;;
15381;SDS011;7789;51.364;12.358;2023-04-24T20:24:08;3.07;;;2.17;;
15381;SDS011;7789;51.364;12.358;2023-04-24T20:29:16;3.37;;;2.40;;
15381;SDS011;7789;51.364;12.358;2023-04-24T20:34:24;2.87;;;2.00;;
15381;SDS011;7789;51.364;12.358;2023-04-24T20:39:28;4.23;;;2.47;;
15381;SDS011;7789;51.364;12.358;2023-04-24T20:44:33;2.03;;;1.73;;
15381;SDS011;7789;51.364;12.358;2023-04-24T20:49:37;2.37;;;2.00;;
15381;SDS011;7789;51.364;12.358;2023-04-24T20:54:41;4.40;;;2.50;;
15381;SDS011;7789;51.364;12.358;2023-04-24T20:59:46;2.10;;;1.80;;
15381;SDS011;7789;51.364;12.358;2023-04-24T21:04:50;6.50;;;2.00;;
15381;SDS011;7789;51.364;12.358;2023-04-24T21:09:54;2.10;;;1.90;;
15381;SDS011;7789;51.364;12.358;2023-04-24T21:15:03;2.77;;;2.17;;
15381;SDS011;7789;51.364;12.358;2023-04-24T21:20:08;2.90;;;2.07;;
15381;SDS011;7789;51.364;12.358;2023-04-24T21:25:11;3.73;;;1.90;;
15381;SDS011;7789;51.364;12.358;2023-04-24T21:30:16;4.27;;;2.03;;
15381;SDS011;7789;51.364;12.358;2023-04-24T21:35:22;3.00;;;1.80;;
15381;SDS011;7789;51.364;12.358;2023-04-24T21:40:25;2.90;;;2.20;;
15381;SDS011;7789;51.364;12.358;2023-04-24T21:45:30;5.03;;;2.17;;
15381;SDS011;7789;51.364;12.358;2023-04-24T21:50:35;3.07;;;2.00;;
15381;SDS011;7789;51.364;12.358;2023-04-24T21:55:40;3.73;;;2.00;;
15381;SDS011;7789;51.364;12.358;2023-04-24T22:00:45;4.40;;;2.00;;
15381;SDS011;7789;51.364;12.358;2023-04-24T22:05:48;3.67;;;2.40;;
15381;SDS011;7789;51.364;12.358;2023-04-24T22:10:52;1.97;;;1.77;;
15381;SDS011;7789;51.364;12.358;2023-04-24T22:15:59;4.10;;;2.03;;
15381;SDS011;7789;51.364;12.358;2023-04-24T22:21:02;2.27;;;1.67;;
15381;SDS011;7789;51.364;12.358;2023-04-24T22:26:06;3.73;;;1.97;;
15381;SDS011;7789;51.364;12.358;2023-04-24T22:31:12;1.90;;;1.70;;
15381;SDS011;7789;51.364;12.358;2023-04-24T22:36:15;2.83;;;1.70;;
15381;SDS011;7789;51.364;12.358;2023-04-24T22:41:19;2.43;;;1.80;;
15381;SDS011;7789;51.364;12.358;2023-04-24T22:46:26;4.00;;;1.97;;
15381;SDS011;7789;51.364;12.358;2023-04-24T22:51:31;3.40;;;2.23;;
15381;SDS011;7789;51.364;12.358;2023-04-24T22:56:35;2.23;;;1.97;;
15381;SDS011;7789;51.364;12.358;2023-04-24T23:01:40;3.10;;;2.00;;
15381;SDS011;7789;51.364;12.358;2023-04-24T23:06:44;5.03;;;2.30;;
15381;SDS011;7789;51.364;12.358;2023-04-24T23:11:48;3.33;;;2.27;;
15381;SDS011;7789;51.364;12.358;2023-04-24T23:16:53;3.60;;;2.20;;
15381;SDS011;7789;51.364;12.358;2023-04-24T23:21:57;2.93;;;2.50;;
15381;SDS011;7789;51.364;12.358;2023-04-24T23:27:02;4.47;;;2.90;;
15381;SDS011;7789;51.364;12.358;2023-04-24T23:32:07;4.70;;;2.73;;
15381;SDS011;7789;51.364;12.358;2023-04-24T23:37:11;6.00;;;2.90;;
15381;SDS011;7789;51.364;12.358;2023-04-24T23:42:18;4.37;;;3.10;;
15381;SDS011;7789;51.364;12.358;2023-04-24T23:47:24;5.73;;;2.77;;
15381;SDS011;7789;51.364;12.358;2023-04-24T23:52:27;5.40;;;3.00;;
15381;SDS011;7789;51.364;12.358;2023-04-24T23:57:31;4.40;;;3.10;;
